• Join FlightAware (Why Join?)
  • Login
  • US Flag 
08:40AM EDT


 

Airport Tracker/Info


-or-


 

Live Flight TrackerFlight Track Log ✈ BOE167 ✈ 04-Aug-2014 ✈ KBFI - KPAE

Flight Track Log - Related Links

Times and Time Zones

All times are in EDT time to prevent confusion due to time zone crossing. See the BOE167 flight status page for this flight to view local times or setup timezone preferences in your user account.

Time Position Orientation Groundspeed Altitude Reporting Facility
EDT Latitude Longitude Course Direction KTS MPH feet Rate Location/Type
03:44PM 47.5499 -122.3210 326° Northwest 189 217 1,300  Level FlightAware ADS-B
03:44PM 47.5623 -122.3330 326° Northwest 211 243 1,800 2,400 Climbing FlightAware ADS-B
03:44PM 47.5691 -122.3398 326° Northwest 222 255 2,400 2,580 Climbing FlightAware ADS-B (KPAE)
03:44PM 47.5752 -122.3460 326° Northwest 226 260 2,500 1,620 Climbing FlightAware ADS-B
03:44PM 47.5875 -122.3580 326° Northwest 245 282 2,900 1,980 Climbing FlightAware ADS-B
03:44PM 47.5896 -122.3603 326° Northwest 249 287 3,000 2,280 Climbing FlightAware ADS-B (KPAE)
03:45PM 47.6004 -122.3710 326° Northwest 261 300 3,400 2,400 Climbing FlightAware ADS-B
03:45PM 47.6041 -122.3750 323° Northwest 262 302 3,600 3,720 Climbing FlightAware ADS-B
03:45PM 47.6082 -122.3800 318° Northwest 261 300 3,900 4,800 Climbing FlightAware ADS-B
03:45PM 47.6077 -122.3795 316° Northwest 261 300 4,000 4,500 Climbing FlightAware ADS-B (KPAE)
03:45PM 47.6113 -122.3850 312° West 261 300 4,200 3,720 Climbing FlightAware ADS-B
03:45PM 47.6148 -122.3920 308° West 261 300 4,500 3,180 Climbing FlightAware ADS-B
03:45PM 47.6222 -122.4060 306° West 264 304 5,000 3,240 Climbing FlightAware ADS-B
03:45PM 47.6325 -122.4273 306° West 270 311 5,800 3,600 Climbing FlightAware ADS-B (KPAE)
03:45PM 47.6332 -122.4290 306° West 270 311 5,900 3,120 Climbing FlightAware ADS-B
03:46PM 47.6453 -122.4530 306° West 276 318 6,700 3,000 Climbing FlightAware ADS-B
03:46PM 47.6482 -122.4590 307° West 277 319 6,900 3,000 Climbing FlightAware ADS-B (KPAE)
03:46PM 47.6559 -122.4740 307° West 280 322 7,400 3,180 Climbing FlightAware ADS-B
03:46PM 47.6566 -122.4754 307° West 281 323 7,700 3,180 Climbing FlightAware ADS-B (CYVR)
03:46PM 47.6678 -122.4970 307° West 285 328 8,200 2,700 Climbing FlightAware ADS-B
03:46PM 47.6754 -122.5120 308° West 288 331 8,600 2,160 Climbing FlightAware ADS-B
03:46PM 47.6761 -122.5133 309° West 288 331 8,600 3,960 Level FlightAware ADS-B (CYVR)
03:46PM 47.6813 -122.5220 313° West 289 333 9,000 3,780 Climbing FlightAware ADS-B
03:46PM 47.6874 -122.5290 323° Northwest 290 334 9,300 3,000 Climbing FlightAware ADS-B
03:46PM 47.6914 -122.5330 326° Northwest 291 335 9,500 3,000 Climbing FlightAware ADS-B
03:47PM 47.6992 -122.5400 333° Northwest 293 337 9,800 3,000 Climbing FlightAware ADS-B
03:47PM 47.7065 -122.5440 341° North 294 338 10,100 2,400 Climbing FlightAware ADS-B
03:47PM 47.7110 -122.5460 346° North 296 341 10,200 2,220 Climbing FlightAware ADS-B
03:47PM 47.7170 -122.5470 353° North 300 345 10,400 2,400 Climbing FlightAware ADS-B
03:47PM 47.7184 -122.5475 352° North 299 344 10,400 1,500 Level FlightAware ADS-B (CYVR)
03:47PM 47.7286 -122.5470 North 311 358 10,600 1,260 Climbing FlightAware ADS-B
03:47PM 47.7385 -122.5430 18° North 320 368 10,700 1,080 Climbing FlightAware ADS-B
03:47PM 47.7431 -122.5390 26° Northeast 325 374 10,800 1,980 Climbing FlightAware ADS-B
03:47PM 47.7465 -122.5365 31° Northeast 329 379 10,900 1,980 Climbing FlightAware ADS-B (KPAE)
03:47PM 47.7478 -122.5350 33° Northeast 331 381 10,900 960 Level FlightAware ADS-B
03:47PM 47.7540 -122.5280 41° Northeast 337 388 11,000 960 Climbing FlightAware ADS-B
03:47PM 47.7465 -122.5365 43° Northeast 341 392 11,000 1,740 Level FlightAware ADS-B (CYWH)
03:48PM 47.7892 -122.4760 46° Northeast 365 420 11,900 1,980 Climbing FlightAware ADS-B
03:48PM 47.7857 -122.4814 46° Northeast 366 421 12,100 2,880 Climbing FlightAware ADS-B (CYWH)
03:48PM 47.8241 -122.4220 46° Northeast 374 430 13,300 2,760 Climbing FlightAware ADS-B
03:48PM 47.8311 -122.4108 49° Northeast 376 433 13,600 3,000 Climbing FlightAware ADS-B (CYWH)
03:48PM 47.8340 -122.4060 50° Northeast 377 434 13,700 2,700 Climbing FlightAware ADS-B
03:49PM 47.8619 -122.3438 58° Northeast 387 445 15,000 2,760 Climbing FlightAware ADS-B (CYWH)
03:49PM 47.8644 -122.3380 58° Northeast 387 445 15,200 3,180 Climbing FlightAware ADS-B
03:49PM 47.8902 -122.2764 58° Northeast 395 455 16,600 3,180 Climbing FlightAware ADS-B (KPAE)
03:49PM 47.8935 -122.2680 58° Northeast 396 456 16,800 3,060 Climbing FlightAware ADS-B
03:50PM 47.9232 -122.1970 59° Northeast 408 470 18,300 2,820 Climbing FlightAware ADS-B
03:50PM 47.9241 -122.1945 59° Northeast 409 471 18,400 2,760 Climbing FlightAware ADS-B (CYWH)
03:50PM 47.9528 -122.1240 59° Northeast 418 481 19,700 3,060 Climbing FlightAware ADS-B
03:51PM 47.9539 -122.1216 57° Northeast 419 482 20,100 3,000 Climbing FlightAware ADS-B (KPAE)
03:51PM 47.9630 -122.1010 55° Northeast 418 481 20,200 2,700 Climbing FlightAware ADS-B
03:51PM 47.9728 -122.0820 50° Northeast 419 482 20,600 2,520 Climbing FlightAware ADS-B
03:51PM 47.9793 -122.0717 46° Northeast 419 482 20,800 2,220 Climbing FlightAware ADS-B (CYWH)
03:51PM 47.9834 -122.0660 45° Northeast 419 482 20,900 3,600 Climbing FlightAware ADS-B
03:51PM 47.9954 -122.0500 39° Northeast 417 480 21,400 3,180 Climbing FlightAware ADS-B
03:51PM 48.0041 -122.0406 34° Northeast 417 480 21,700 2,820 Climbing FlightAware ADS-B (CYVR)
03:51PM 48.0229 -122.0240 28° Northeast 416 479 22,200 3,480 Climbing FlightAware ADS-B
03:51PM 48.0257 -122.0218 26° Northeast 416 479 22,400 2,460 Climbing FlightAware ADS-B (KPAE)
03:51PM 48.0431 -122.0110 19° North 415 478 22,700 2,100 Climbing FlightAware ADS-B
03:52PM 48.0563 -122.0050 14° North 414 476 23,000 2,760 Climbing FlightAware ADS-B
03:52PM 48.0672 -122.0021 10° North 414 476 23,300 3,300 Climbing FlightAware ADS-B (KPAE)
03:52PM 48.0732 -122.0010 North 414 476 23,500 2,520 Climbing FlightAware ADS-B
03:52PM 48.0938 -121.9990 North 414 476 23,900 2,280 Climbing FlightAware ADS-B
03:52PM 48.1049 -121.9984 360° North 415 478 24,200 2,220 Climbing FlightAware ADS-B (KPAE)
03:52PM 48.1088 -121.9980 360° North 415 478 24,200 2,280 Level FlightAware ADS-B
03:53PM 48.1672 -122.0000 359° North 422 486 25,400 2,340 Climbing FlightAware ADS-B
03:53PM 48.1719 -122.0000 359° North 423 487 25,500 3,000 Climbing FlightAware ADS-B (CYWH)
03:53PM 48.1805 -122.0001 359° North 424 488 25,700 2,220 Climbing FlightAware ADS-B (KPFC)
03:53PM 48.2266 -122.0010 359° North 429 494 26,500 2,100 Climbing FlightAware ADS-B
03:53PM 48.2445 -122.0010 359° North 429 494 26,900 2,460 Climbing FlightAware ADS-B (CYWH)
03:53PM 48.2603 -122.0020 356° North 428 493 27,200 2,400 Climbing FlightAware ADS-B
03:53PM 48.2666 -122.0030 354° North 429 494 27,300 1,800 Climbing FlightAware ADS-B (KPAE)
03:53PM 48.2795 -122.0060 351° North 428 493 27,500 2,100 Climbing FlightAware ADS-B
03:54PM 48.3052 -122.0160 343° North 430 495 28,000 2,100 Climbing FlightAware ADS-B
03:54PM 48.3071 -122.0166 342° North 422 486 28,000 1,980 Level FlightAware ADS-B (KPFC)
03:54PM 48.3209 -122.0240 338° Northwest 430 495 28,300 1,800 Climbing FlightAware ADS-B
03:54PM 48.3245 -122.0266 338° Northwest 430 495 28,300 1,680 Level FlightAware ADS-B (CYVR)
03:54PM 48.3349 -122.0340 334° Northwest 431 496 28,500 2,400 Climbing FlightAware ADS-B
03:54PM 48.3435 -122.0405 331° Northwest 424 488 28,700 1,920 Climbing FlightAware ADS-B (KPFC)
03:54PM 48.3780 -122.0707 329° Northwest 427 491 29,300 2,040 Climbing FlightAware ADS-B (KPFC)
03:54PM 48.3870 -122.0790 330° Northwest 432 497 29,600 2,760 Climbing FlightAware ADS-B
03:55PM 48.4328 -122.1185 330° Northwest 428 493 30,800 2,580 Climbing FlightAware ADS-B (KPFC)
03:55PM 48.4400 -122.1250 330° Northwest 428 493 30,900 1,740 Climbing FlightAware ADS-B
03:55PM 48.4864 -122.1655 330° Northwest 432 497 31,700 1,800 Climbing FlightAware ADS-B (CYWH)
03:55PM 48.4916 -122.1700 330° Northwest 434 499 31,800 1,380 Climbing FlightAware ADS-B
03:56PM 48.5309 -122.2045 329° Northwest 432 497 32,300 1,320 Climbing FlightAware ADS-B (KPFC)
03:56PM 48.5446 -122.2160 330° Northwest 439 505 32,500 1,380 Climbing FlightAware ADS-B
03:56PM 48.5758 -122.2441 329° Northwest 444 511 33,000 1,380 Climbing FlightAware ADS-B (KPAE)
03:57PM 48.5977 -122.2640 329° Northwest 445 512 33,200 1,500 Climbing FlightAware ADS-B
03:57PM 48.6383 -122.3006 329° Northwest 448 516 33,800 1,440 Climbing FlightAware ADS-B (CYVR)
03:57PM 48.6564 -122.3170 329° Northwest 449 517 34,000 1,200 Climbing FlightAware ADS-B
03:57PM 48.6883 -122.3460 329° Northwest 453 521 34,400 1,140 Climbing FlightAware ADS-B (CYVR)
03:58PM 48.7117 -122.3670 329° Northwest 455 524 34,600 1,080 Climbing FlightAware ADS-B
03:58PM 48.7435 -122.3959 329° Northwest 459 528 35,000 1,200 Climbing FlightAware ADS-B (CYWH)
03:58PM 48.7665 -122.4170 329° Northwest 459 528 35,200 1,980 Climbing FlightAware ADS-B
03:58PM 48.8048 -122.4514 329° Northwest 453 521 36,100 1,860 Climbing FlightAware ADS-B (CYWH)
03:59PM 48.8611 -122.5020 329° Northwest 451 519 36,900 1,560 Climbing FlightAware ADS-B (CYVR)
03:59PM 48.9078 -122.5448 330° Northwest 450 518 37,400 1,320 Climbing FlightAware ADS-B (CYCD)
03:59PM 48.9114 -122.5480 331° Northwest 450 518 37,500 840 Climbing FlightAware ADS-B
04:00PM 48.9227 -122.5560 336° Northwest 450 518 37,600 900 Climbing FlightAware ADS-B
04:00PM 48.9364 -122.5630 341° North 451 519 37,700 1,620 Climbing FlightAware ADS-B
04:00PM 48.9444 -122.5667 349° North 452 520 37,900 1,800 Climbing FlightAware ADS-B (CYCD)
04:00PM 48.9633 -122.5723 358° North 453 521 38,100 900 Climbing FlightAware ADS-B (CYCD)
04:00PM 48.9534 -122.5698 North 456 525 38,300 420 Climbing FlightAware ADS-B (CYVR)
04:01PM 49.0540 -122.5666 North 462 532 38,500 420 Climbing FlightAware ADS-B (KPAE)
04:01PM 49.1070 -122.5600 360° North 455 524 38,700 540 Climbing FlightAware ADS-B
04:01PM 49.1151 -122.5590 North 467 537 38,700 300 Level FlightAware ADS-B
04:01PM 49.1471 -122.5557 North 470 541 38,800 480 Climbing FlightAware ADS-B (CYWH)
04:02PM 49.2027 -122.5492 North 474 545 39,100 540 Climbing FlightAware ADS-B (CYWH)
04:02PM 49.2873 -122.5393 North 478 550 39,400 600 Climbing FlightAware ADS-B (CYVR)
04:03PM 49.3645 -122.5301 North 481 554 39,800 600 Climbing FlightAware ADS-B (CYCD)
04:03PM 49.4035 -122.5254 North 482 555 39,900 360 Climbing FlightAware ADS-B (CYCD)
04:03PM 49.4230 -122.5231 North 484 557 40,000 180 Climbing FlightAware ADS-B (CYWH)
04:04PM 49.4571 -122.5191 North 488 562 40,000  Level FlightAware ADS-B (CYWH)
04:04PM 49.5316 -122.5103 North 494 568 40,000  Level FlightAware ADS-B (CYWH)
04:05PM 49.5675 -122.5061 North 497 572 40,000  Level FlightAware ADS-B (CYWH)
04:05PM 49.6647 -122.4945 North 495 570 40,000  Level FlightAware ADS-B (CYCD)
04:06PM 49.7383 -122.4858 North 494 568 40,000  Level FlightAware ADS-B (CYVR)
04:06PM 49.8153 -122.4765 North 492 566 40,000  Level FlightAware ADS-B (CYVR)
04:07PM 49.8985 -122.4664 North 492 566 40,000  Level FlightAware ADS-B (CYVR)
04:07PM 49.9691 -122.4579 North 492 566 40,000  Level FlightAware ADS-B (CYVR)
04:08PM 50.0360 -122.4499 North 491 565 40,000  Level FlightAware ADS-B (CYVR)
04:08PM 50.1026 -122.4418 North 489 563 40,000  Level FlightAware ADS-B (CYVR)
04:09PM 50.1894 -122.4312 North 489 563 40,000  Level FlightAware ADS-B (CYCD)
04:10PM 50.2645 -122.4221 North 490 564 40,000  Level FlightAware ADS-B (CYVR)
04:10PM 50.3564 -122.4108 North 490 564 40,000  Level FlightAware ADS-B (CYVR)
04:11PM 50.4060 -122.4047 North 490 564 40,000  Level FlightAware ADS-B (CYVR)
04:11PM 50.4983 -122.3933 North 490 564 40,000  Level FlightAware ADS-B (CYVR)
04:12PM 50.5701 -122.3844 North 491 565 40,000  Level FlightAware ADS-B (CYVR)
04:12PM 50.6456 -122.3750 North 491 565 40,000  Level FlightAware ADS-B (CYVR)
04:12PM 50.6619 -122.3733 North 492 566 40,000  Level FlightAware ADS-B (CYCD)
04:13PM 50.7135 -122.3730 357° North 490 564 40,000  Level FlightAware ADS-B (CYVR)
04:13PM 50.7786 -122.3829 353° North 488 562 40,000  Level FlightAware ADS-B (CYVR)
04:14PM 50.8599 -122.3991 353° North 488 562 40,000  Level FlightAware ADS-B (CYVR)
04:15PM 51.0167 -122.4167 353° North 490 564 40,000  Level Vancouver Center
04:16PM 51.1333 -122.4333 355° North 490 564 40,000  Level Vancouver Center
04:17PM 51.2833 -122.4833 348° North 490 564 40,000  Level Vancouver Center
04:18PM 51.4167 -122.5167 351° North 490 564 40,000  Level Vancouver Center
04:19PM 51.5500 -122.5333 356° North 490 564 40,000  Level Vancouver Center
04:20PM 51.6667 -122.5667 350° North 490 564 40,000  Level Vancouver Center
04:21PM 51.8167 -122.5833 356° North 490 564 40,000  Level Vancouver Center
04:22PM 51.9500 -122.6333 347° North 490 564 40,000  Level Vancouver Center
04:23PM 52.0833 -122.6500 356° North 490 564 40,000  Level Vancouver Center
04:24PM 52.2167 -122.6833 351° North 490 564 40,000  Level Vancouver Center
04:25PM 52.3500 -122.7000 356° North 490 564 40,000  Level Vancouver Center
04:26PM 52.4833 -122.7333 351° North 490 564 40,000  Level Vancouver Center
04:27PM 52.6333 -122.7500 356° North 490 564 40,000  Level Vancouver Center
04:28PM 52.7667 -122.7500 360° North 500 575 40,000  Level Vancouver Center
04:29PM 52.9000 -122.7500 360° North 490 564 40,000  Level Vancouver Center
04:30PM 53.0333 -122.7667 356° North 490 564 40,000  Level Vancouver Center
04:31PM 53.1667 -122.7667 360° North 490 564 40,000  Level Vancouver Center
04:32PM 53.3167 -122.7667 360° North 490 564 40,000  Level Vancouver Center
04:33PM 53.4500 -122.7833 356° North 490 564 40,000  Level Vancouver Center
04:34PM 53.5833 -122.7833 360° North 500 575 40,000  Level Vancouver Center
04:35PM 53.7167 -122.7833 360° North 500 575 40,000  Level Vancouver Center
04:36PM 53.8667 -122.8000 356° North 500 575 40,000  Level Vancouver Center
04:37PM 54.0000 -122.8000 360° North 490 564 40,000  Level Vancouver Center
04:38PM 54.1333 -122.8000 360° North 490 564 40,000  Level Vancouver Center
04:39PM 54.2667 -122.8000 360° North 490 564 40,000  Level Vancouver Center
04:40PM 54.4333 -122.8167 357° North 490 564 40,000  Level Vancouver Center
04:41PM 54.5667 -122.8167 360° North 500 575 40,000  Level Vancouver Center
04:42PM 54.7000 -122.8167 360° North 500 575 40,000  Level Vancouver Center
04:43PM 54.8333 -122.8333 356° North 500 575 40,000  Level Vancouver Center
04:44PM 54.9667 -122.8333 360° North 500 575 40,000  Level Vancouver Center
04:45PM 55.1167 -122.8333 360° North 490 564 40,000  Level Vancouver Center
04:46PM 55.1667 -122.9167 316° Northwest 490 564 40,000  Level Edmonton Center
04:47PM 55.3000 -122.9333 356° North 490 564 40,000  Level Edmonton Center
04:48PM 55.4333 -122.9333 360° North 490 564 40,000  Level Edmonton Center
04:49PM 55.5833 -122.9333 360° North 480 552 40,000  Level Edmonton Center
04:50PM 55.7167 -122.9500 356° North 490 564 40,000  Level Edmonton Center
04:51PM 55.8500 -122.9500 360° North 490 564 40,000  Level Edmonton Center
04:52PM 56.0000 -122.9500 360° North 490 564 40,000  Level Edmonton Center
04:53PM 56.1333 -122.9500 360° North 490 564 40,000  Level Edmonton Center
04:54PM 56.2500 -122.9500 360° North 490 564 40,000  Level Edmonton Center
04:55PM 56.4167 -122.9667 357° North 490 564 40,000  Level Edmonton Center
04:56PM 56.5333 -122.9667 360° North 480 552 40,000  Level Edmonton Center
04:57PM 56.6667 -122.9667 360° North 480 552 40,000  Level Edmonton Center
04:58PM 56.8167 -122.9833 357° North 480 552 40,000  Level Edmonton Center
04:59PM 56.9500 -122.9833 360° North 490 564 40,000  Level Edmonton Center
05:00PM 57.0833 -122.9833 360° North 490 564 40,000  Level Edmonton Center
05:01PM 57.2333 -123.0000 357° North 480 552 40,000  Level Edmonton Center
05:02PM 57.3500 -123.0167 356° North 480 552 40,000  Level Edmonton Center
05:03PM 57.4833 -123.0333 356° North 480 552 40,000  Level Edmonton Center
05:04PM 57.6167 -123.0333 360° North 490 564 40,000  Level Edmonton Center
05:05PM 57.7667 -123.0500 357° North 490 564 40,000  Level Edmonton Center
05:06PM 57.9000 -123.0500 360° North 490 564 40,000  Level Edmonton Center
05:07PM 58.0167 -123.0500 360° North 480 552 40,000  Level Edmonton Center
05:08PM 58.1667 -123.0500 360° North 490 564 40,000  Level Edmonton Center
05:09PM 58.3000 -123.0667 356° North 490 564 40,000  Level Edmonton Center
05:10PM 58.4333 -123.0667 360° North 490 564 40,000  Level Edmonton Center
05:11PM 58.5833 -123.0833 357° North 490 564 40,000  Level Edmonton Center
05:12PM 58.7167 -123.0833 360° North 480 552 40,000  Level Edmonton Center
05:13PM 58.8500 -123.0833 360° North 490 564 40,000  Level Edmonton Center
05:15PM 59.0340 -123.1737 329° Northwest  Level FlightAware Approximate
05:22PM 59.8039 -124.0874 329° Northwest  Level FlightAware Approximate
05:23PM 59.9139 -124.2195 329° Northwest  Level FlightAware Approximate
05:24PM 60.0238 -124.3524 329° Northwest  Level FlightAware Approximate
05:25PM 60.1336 -124.4863 329° Northwest  Level FlightAware Approximate
05:26PM 60.2432 -124.6211 329° Northwest  Level FlightAware Approximate
05:27PM 60.3527 -124.7568 329° Northwest  Level FlightAware Approximate
05:28PM 60.4620 -124.8933 328° Northwest  Level FlightAware Approximate
05:29PM 60.5712 -125.0308 328° Northwest  Level FlightAware Approximate
05:30PM 60.6803 -125.1693 328° Northwest  Level FlightAware Approximate
05:31PM 60.7892 -125.3086 328° Northwest  Level FlightAware Approximate
05:32PM 60.8980 -125.4490 328° Northwest  Level FlightAware Approximate
05:33PM 61.0066 -125.5903 328° Northwest  Level FlightAware Approximate
05:34PM 61.1151 -125.7325 328° Northwest  Level FlightAware Approximate
05:35PM 61.2234 -125.8758 328° Northwest  Level FlightAware Approximate
05:36PM 61.3316 -126.0200 327° Northwest  Level FlightAware Approximate
05:37PM 61.4397 -126.1651 327° Northwest  Level FlightAware Approximate
05:38PM 61.5476 -126.3112 327° Northwest  Level FlightAware Approximate
05:39PM 61.6553 -126.4583 327° Northwest  Level FlightAware Approximate
05:40PM 61.7629 -126.6064 327° Northwest  Level FlightAware Approximate
05:41PM 61.8703 -126.7556 327° Northwest  Level FlightAware Approximate
05:42PM 61.9776 -126.9058 327° Northwest  Level FlightAware Approximate
05:43PM 62.0847 -127.0571 327° Northwest  Level FlightAware Approximate
05:44PM 62.1911 -127.2113 325° Northwest  Level FlightAware Approximate
05:45PM 62.0652 -127.1480 167° South  Level Estimated
05:46PM 61.9393 -127.0853 167° South  Level Estimated
05:47PM 61.8134 -127.0230 167° South  Level Estimated
05:48PM 61.6874 -126.9613 167° South  Level Estimated
05:49PM 61.5614 -126.9000 167° South  Level Estimated
05:50PM 61.4354 -126.8393 167° South  Level Estimated
05:51PM 61.3094 -126.7790 167° South  Level Estimated
05:52PM 61.1833 -126.7193 167° South  Level Estimated
05:53PM 61.0572 -126.6600 167° South  Level Estimated
05:54PM 60.9311 -126.6012 167° South  Level Estimated
05:55PM 60.8050 -126.5428 167° South  Level Estimated
05:56PM 60.6788 -126.4849 167° South  Level Estimated
05:57PM 60.5526 -126.4275 167° South  Level Estimated
05:58PM 60.4264 -126.3705 167° South  Level Estimated
05:59PM 60.3002 -126.3139 167° South  Level Estimated
06:00PM 60.1739 -126.2578 168° South  Level Estimated
06:01PM 60.0477 -126.2021 168° South  Level Estimated
06:02PM 59.9213 -126.1468 168° South  Level Estimated
06:03PM 59.7950 -126.0919 168° South  Level Estimated
06:04PM 59.6687 -126.0375 168° South  Level Estimated
06:05PM 59.5423 -125.9835 168° South  Level Estimated
06:06PM 59.4159 -125.9298 168° South  Level Estimated
06:07PM 59.2895 -125.8766 168° South  Level Estimated
06:08PM 59.1631 -125.8238 168° South  Level Estimated
06:09PM 59.0366 -125.7713 168° South  Level Estimated
06:10PM 58.9101 -125.7193 168° South  Level Estimated
06:11PM 58.7836 -125.6676 168° South  Level Estimated
06:12PM 58.6571 -125.6163 168° South  Level Estimated
06:13PM 58.5305 -125.5654 168° South  Level Estimated
06:14PM 58.4040 -125.5148 168° South  Level Estimated
06:15PM 58.2774 -125.4646 168° South  Level Estimated
06:16PM 58.1508 -125.4147 168° South  Level Estimated
06:17PM 58.0242 -125.3652 168° South  Level Estimated
06:18PM 57.8975 -125.3161 168° South  Level Estimated
06:19PM 57.7709 -125.2673 168° South  Level Estimated
06:20PM 57.6442 -125.2188 168° South  Level Estimated
06:21PM 57.5175 -125.1707 168° South  Level Estimated
06:22PM 57.3908 -125.1229 169° South  Level Estimated
06:23PM 57.2640 -125.0755 169° South  Level Estimated
06:24PM 57.1373 -125.0283 169° South  Level Estimated
06:25PM 57.0105 -124.9815 169° South  Level Estimated
06:26PM 56.8837 -124.9350 169° South  Level Estimated
06:27PM 56.7569 -124.8889 169° South  Level Estimated
06:27PM 62.9167 -140.4000 169° South 480 552 43,000  Level Anchorage Center
06:28PM 56.6301 -124.8430 169° South  Level Estimated
06:28PM 62.9333 -140.7000 277° West 500 575 43,000  Level Anchorage Center
06:29PM 56.5033 -124.7974 169° South  Level Estimated
06:29PM 62.9333 -141.0167 270° West 510 587 43,000  Level Anchorage Center
06:30PM 56.3764 -124.7522 169° South  Level Estimated
06:30PM 62.9333 -141.3167 270° West 490 564 43,000  Level Anchorage Center
06:31PM 56.2496 -124.7072 169° South  Level Estimated
06:31PM 62.9333 -141.6167 270° West 500 575 43,000  Level Anchorage Center
06:32PM 56.1227 -124.6626 169° South  Level Estimated
06:32PM 62.9333 -141.9333 270° West 490 564 43,000  Level Anchorage Center
06:33PM 62.8833 -142.2000 248° West 500 575 43,000  Level Anchorage Center
06:39PM 62.5535 -143.7394 245° Southwest 493 567 43,000  Level FlightAware ADS-B (PANN / ENN)
06:39PM 62.5178 -143.8981 244° Southwest 494 568 43,000  Level FlightAware ADS-B (PANN / ENN)
06:40PM 62.4408 -144.2354 244° Southwest 494 568 43,000  Level FlightAware ADS-B (PANN / ENN)
06:42PM 62.3653 -144.5603 244° Southwest 494 568 43,000  Level FlightAware ADS-B (PANN / ENN)
06:43PM 62.2866 -144.8947 243° Southwest 496 571 43,000  Level FlightAware ADS-B (PAEN / ENA)
06:43PM 62.2550 -145.0276 243° Southwest 496 571 43,000  Level FlightAware ADS-B (PAEN / ENA)
06:43PM 62.2479 -145.0572 244° Southwest 495 570 43,000  Level FlightAware ADS-B (PANN / ENN)
06:44PM 62.2222 -145.1642 243° Southwest 494 568 43,000  Level FlightAware ADS-B (PAEN / ENA)
06:44PM 62.1903 -145.2965 243° Southwest 493 567 43,000  Level FlightAware ADS-B (PAEN / ENA)
06:45PM 62.1632 -145.4110 245° Southwest 493 567 43,000  Level FlightAware ADS-B (PANN / ENN)
06:45PM 62.1608 -145.4216 244° Southwest 493 567 43,000  Level FlightAware ADS-B (PAEN / ENA)
06:45PM 62.1470 -145.4850 246° West 493 567 43,000  Level FlightAware ADS-B (PANN / ENN)
06:46PM 62.1199 -145.6205 247° West 494 568 43,000  Level FlightAware ADS-B (PAEN / ENA)
06:46PM 62.0990 -145.7252 248° West 495 570 43,000  Level FlightAware ADS-B (PANN / ENN)
06:46PM 62.0828 -145.8068 247° West 497 572 43,000  Level FlightAware ADS-B (PAEN / ENA)
06:46PM 62.0740 -145.8509 247° West 496 571 43,000  Level FlightAware ADS-B (PANN / ENN)
06:47PM 62.0593 -145.9246 247° West 498 573 43,000  Level FlightAware ADS-B (PAEN / ENA)
06:47PM 62.0437 -146.0028 247° West 498 573 43,000  Level FlightAware ADS-B (PANN / ENN)
06:48PM 62.0161 -146.1397 247° West 500 575 43,000  Level FlightAware ADS-B (PANN / ENN)
06:48PM 62.0210 -146.1154 247° West 502 578 43,000  Level FlightAware ADS-B (PANC)
06:48PM 61.9941 -146.2481 247° West 503 579 43,000  Level FlightAware ADS-B (PANC)
06:49PM 61.9620 -146.4052 247° West 503 579 43,000  Level FlightAware ADS-B (PANN / ENN)
06:49PM 61.9417 -146.5036 246° West 504 580 43,000  Level FlightAware ADS-B (PAEN / ENA)
06:49PM 61.9336 -146.5433 247° West 504 580 43,000  Level FlightAware ADS-B (PANN / ENN)
06:49PM 61.9133 -146.6415 246° West 504 580 43,000  Level FlightAware ADS-B (PANC)
06:50PM 61.9047 -146.6830 247° West 503 579 43,000  Level FlightAware ADS-B (PANN / ENN)
06:50PM 61.8839 -146.7828 246° West 503 579 43,000  Level FlightAware ADS-B (PANC)
06:50PM 61.8766 -146.8179 247° West 503 579 43,000  Level FlightAware ADS-B (PANN / ENN)
06:50PM 61.8494 -146.9472 247° West 504 580 43,000  Level FlightAware ADS-B (PANN / ENN)
06:51PM 61.8478 -146.9553 246° West 505 581 43,000  Level FlightAware ADS-B (PANC)
06:51PM 61.8184 -147.0940 246° West 506 582 43,000  Level FlightAware ADS-B (PANN / ENN)
06:51PM 61.8170 -147.1002 246° West 507 583 43,000  Level FlightAware ADS-B (PANC)
06:52PM 61.7956 -147.2006 246° West 502 578 43,000  Level FlightAware ADS-B (PANN / ENN)
06:52PM 61.7952 -147.2024 246° West 501 577 43,000  Level FlightAware ADS-B (PAEN / ENA)
06:52PM 61.7617 -147.3596 246° West 500 575 43,000  Level FlightAware ADS-B (PANN / ENN)
06:52PM 61.7583 -147.3756 246° West 500 575 43,000  Level FlightAware ADS-B (PAEN / ENA)
06:53PM 61.7219 -147.5447 246° West 505 581 43,000  Level FlightAware ADS-B (PANC)
06:53PM 61.7111 -147.5948 246° West 507 583 43,000  Level FlightAware ADS-B (PANN / ENN)
06:53PM 61.6921 -147.6817 245° Southwest 509 586 43,000  Level FlightAware ADS-B (PANC)
06:54PM 61.6796 -147.7381 246° West 508 585 43,000  Level FlightAware ADS-B (PANN / ENN)
06:54PM 61.6575 -147.8393 245° Southwest 507 583 43,000  Level FlightAware ADS-B (PAEN / ENA)
06:54PM 61.6291 -147.9687 245° Southwest 508 585 43,000  Level FlightAware ADS-B (PAEN / ENA)
06:55PM 61.5973 -148.1124 245° Southwest 510 587 43,000  Level FlightAware ADS-B (PAEN / ENA)
06:55PM 61.5745 -148.2143 245° Southwest 511 588 43,000  Level FlightAware ADS-B (PAEN / ENA)
06:56PM 61.5360 -148.3858 245° Southwest 511 588 43,000  Level FlightAware ADS-B (PANC)
06:57PM 61.4991 -148.5498 244° Southwest 511 588 43,000  Level FlightAware ADS-B (PANC)
06:57PM 61.4626 -148.7087 245° Southwest 511 588 43,000  Level FlightAware ADS-B (PANC)
06:57PM 61.4568 -148.7344 245° Southwest 510 587 43,000  Level FlightAware ADS-B (PAMR / MRI)
06:58PM 61.4262 -148.8671 244° Southwest 508 585 43,000  Level FlightAware ADS-B (PANC)
06:58PM 61.4086 -148.9437 245° Southwest 507 583 43,000  Level FlightAware ADS-B (PANN / ENN)
06:58PM 61.3867 -149.0387 244° Southwest 508 585 43,000  Level FlightAware ADS-B (PAEN / ENA)
06:58PM 61.4008 -148.9780 245° Southwest 507 583 43,000  Level FlightAware ADS-B (PANN / ENN)
06:59PM 61.3543 -149.1777 244° Southwest 511 588 43,000  Level FlightAware ADS-B (PAEN / ENA)
06:59PM 61.3215 -149.3170 244° Southwest 512 589 43,000  Level FlightAware ADS-B (PANC)
07:00PM 61.2895 -149.4525 244° Southwest 512 589 43,000  Level FlightAware ADS-B (PANC)
07:01PM 61.2438 -149.6229 230° Southwest 508 585 43,000  Level FlightAware ADS-B (PANC)
07:01PM 61.2576 -149.5836 222° Southwest 504 580 43,000  Level FlightAware ADS-B (PAMR / MRI)
07:01PM 61.2082 -149.6856 211° Southwest 500 575 43,000  Level FlightAware ADS-B (PANC)
07:01PM 61.1521 -149.7277 188° South 494 568 43,000  Level FlightAware ADS-B (PAEN / ENA)
07:02PM 61.1172 -149.7298 176° South 491 565 43,000  Level FlightAware ADS-B (PANC)
07:02PM 61.0889 -149.7189 164° South 488 562 43,000  Level FlightAware ADS-B (PAMR / MRI)
07:02PM 61.0524 -149.6859 151° Southeast 487 560 43,000  Level FlightAware ADS-B (PANC)
07:02PM 61.0244 -149.6403 135° Southeast 484 557 43,000  Level FlightAware ADS-B (PAEN / ENA)
07:03PM 60.9814 -149.5462 133° Southeast 488 562 43,000  Level FlightAware ADS-B (PANC)
07:03PM 60.9264 -149.4250 133° Southeast 490 564 43,000  Level FlightAware ADS-B (PAMR / MRI)
07:04PM 60.8999 -149.3667 133° Southeast 490 564 43,000  Level FlightAware ADS-B (PANC)
07:05PM 60.7916 -149.1307 134° Southeast 490 564 43,000  Level FlightAware ADS-B (PANC)
07:05PM 60.7432 -149.0261 133° Southeast 490 564 43,000  Level FlightAware ADS-B (PANC)
07:06PM 60.6846 -148.9008 133° Southeast 489 563 43,000  Level FlightAware ADS-B (PANC)
07:07PM 60.6320 -148.7881 134° Southeast 492 566 43,000  Level FlightAware ADS-B (PANC)
07:07PM 60.5771 -148.6718 134° Southeast 496 571 43,000  Level FlightAware ADS-B (PANC)
07:08PM 60.5208 -148.5530 134° Southeast 494 568 43,000  Level FlightAware ADS-B (PANC)
07:08PM 60.4654 -148.4365 134° Southeast 491 565 43,000  Level FlightAware ADS-B (PAEN / ENA)
07:09PM 60.4213 -148.3444 134° Southeast 492 566 43,000  Level FlightAware ADS-B (PAEN / ENA)
07:09PM 60.3692 -148.2359 134° Southeast 492 566 43,000  Level FlightAware ADS-B (PAEN / ENA)
07:10PM 60.3202 -148.1344 134° Southeast 492 566 43,000  Level FlightAware ADS-B (PANC)
07:11PM 60.2565 -148.0026 134° Southeast 484 557 43,000  Level FlightAware ADS-B (PAEN / ENA)
07:11PM 60.2058 -147.8986 134° Southeast 486 559 43,000  Level FlightAware ADS-B (PAEN / ENA)
07:12PM 60.1624 -147.8101 135° Southeast 486 559 43,000  Level FlightAware ADS-B (PAEN / ENA)
07:12PM 60.1100 -147.7036 135° Southeast 483 556 43,000  Level FlightAware ADS-B (PAEN / ENA)
07:13PM 60.0530 -147.5880 135° Southeast 479 551 43,000  Level FlightAware ADS-B (PANC)
07:13PM 59.9962 -147.4737 135° Southeast 480 552 43,000  Level FlightAware ADS-B (PAEN / ENA)
07:14PM 59.9468 -147.3749 135° Southeast 481 554 43,000  Level FlightAware ADS-B (PAEN / ENA)
07:14PM 59.8992 -147.2798 135° Southeast 482 555 43,000  Level FlightAware ADS-B (PAEN / ENA)
07:15PM 59.8298 -147.1425 135° Southeast 488 562 43,000  Level FlightAware ADS-B (PAEN / ENA)
07:16PM 59.7803 -147.0448 135° Southeast 488 562 43,000  Level FlightAware ADS-B (PAEN / ENA)
07:16PM 59.7420 -146.9695 135° Southeast 487 560 43,000  Level FlightAware ADS-B (PAEN / ENA)
07:17PM 59.6845 -146.8569 135° Southeast 488 562 43,000  Level FlightAware ADS-B (PAEN / ENA)
07:17PM 59.6129 -146.7176 136° Southeast 487 560 43,000  Level FlightAware ADS-B (PAEN / ENA)
07:18PM 59.5433 -146.5831 136° Southeast 488 562 43,000  Level FlightAware ADS-B (PAEN / ENA)
07:19PM 59.4711 -146.4445 136° Southeast 489 563 43,000  Level FlightAware ADS-B (PAEN / ENA)
07:19PM 59.4239 -146.3437 128° Southeast 490 564 43,000  Level FlightAware ADS-B (PAEN / ENA)
07:20PM 59.3733 -146.1897 121° Southeast 490 564 43,000  Level FlightAware ADS-B (PAEN / ENA)
07:21PM 59.3353 -146.0651 121° Southeast 491 565 43,000  Level FlightAware ADS-B (PAEN / ENA)
07:21PM 59.2956 -145.9353 121° Southeast 490 564 43,000  Level FlightAware ADS-B (PAEN / ENA)
07:22PM 59.2431 -145.7654 121° Southeast 490 564 43,000  Level FlightAware ADS-B (PAEN / ENA)
07:23PM 59.1500 -145.4833 121° Southeast 490 564 43,000  Level Anchorage Center
07:24PM 59.0833 -145.2667 121° Southeast 490 564 43,000  Level Anchorage Center
07:25PM 59.0000 -145.0500 127° Southeast 490 564 43,000  Level Anchorage Center
07:26PM 58.9333 -144.8167 119° Southeast 480 552 43,000  Level Anchorage Center
07:27PM 58.8667 -144.6000 121° Southeast 490 564 43,000  Level Anchorage Center
07:28PM 58.7833 -144.3833 127° Southeast 490 564 43,000  Level Anchorage Center
07:29PM 58.7167 -144.1667 121° Southeast 490 564 43,000  Level Anchorage Center
07:30PM 58.6500 -143.9333 119° Southeast 490 564 43,000  Level Anchorage Center
07:31PM 58.5667 -143.7167 126° Southeast 490 564 43,000  Level Anchorage Center
07:32PM 58.5000 -143.5000 120° Southeast 490 564 43,000  Level Anchorage Center
07:33PM 58.4167 -143.2667 124° Southeast 480 552 43,000  Level Anchorage Center
07:34PM 58.3333 -143.0500 126° Southeast 490 564 43,000  Level Anchorage Center
07:35PM 58.2667 -142.8333 120° Southeast 480 552 43,000  Level Anchorage Center
07:36PM 58.2000 -142.6167 120° Southeast 480 552 43,000  Level Anchorage Center
07:37PM 58.1167 -142.4167 128° Southeast 480 552 43,000  Level Anchorage Center
07:38PM 58.0500 -142.2000 120° Southeast 470 541 43,000  Level Anchorage Center
07:39PM 57.9667 -142.0000 128° Southeast 470 541 43,000  Level Anchorage Center
07:40PM 57.9000 -141.8000 122° Southeast 470 541 43,000  Level Anchorage Center
07:41PM 57.8167 -141.5833 126° Southeast 490 564 43,000  Level Anchorage Center
07:42PM 57.7500 -141.3833 122° Southeast 490 564 43,000  Level Anchorage Center
07:43PM 57.6667 -141.1667 126° Southeast 490 564 43,000  Level Anchorage Center
07:44PM 57.5833 -140.9667 128° Southeast 470 541 43,000  Level Anchorage Center
07:45PM 57.5000 -140.7667 128° Southeast 490 564 43,000  Level Anchorage Center
07:46PM 57.4167 -140.5667 128° Southeast 490 564 43,000  Level Anchorage Center
07:47PM 57.3500 -140.3667 122° Southeast 480 552 43,000  Level Anchorage Center
07:48PM 57.2667 -140.1667 128° Southeast 480 552 43,000  Level Anchorage Center
07:49PM 57.1833 -139.9667 128° Southeast 480 552 43,000  Level Anchorage Center
07:50PM 57.1000 -139.7667 127° Southeast 490 564 43,000  Level Anchorage Center
07:51PM 57.0167 -139.5667 127° Southeast 480 552 43,000  Level Anchorage Center
07:52PM 56.9333 -139.3667 127° Southeast 490 564 43,000  Level Anchorage Center
07:53PM 56.8500 -139.1833 130° Southeast 480 552 43,000  Level Anchorage Center
07:54PM 56.7667 -138.9833 127° Southeast 470 541 43,000  Level Anchorage Center
07:55PM 56.7000 -138.8000 123° Southeast 470 541 43,000  Level Anchorage Center
07:56PM 56.6167 -138.6000 127° Southeast 480 552 43,000  Level Anchorage Center
07:57PM 56.5333 -138.4167 129° Southeast 480 552 43,000  Level Anchorage Center
07:58PM 56.4500 -138.2167 127° Southeast 480 552 43,000  Level Anchorage Center
07:59PM 56.3667 -138.0333 129° Southeast 480 552 43,000  Level Anchorage Center
08:00PM 56.2833 -137.8500 129° Southeast 480 552 43,000  Level Anchorage Center
08:01PM 56.2000 -137.6500 127° Southeast 480 552 43,000  Level Anchorage Center
08:02PM 56.1167 -137.4667 129° Southeast 480 552 43,000  Level Anchorage Center
08:03PM 56.0333 -137.2833 129° Southeast 470 541 43,000  Level Anchorage Center
08:04PM 55.9500 -137.1000 129° Southeast 470 541 43,000  Level Anchorage Center
08:05PM 55.8500 -136.9000 132° Southeast 480 552 43,000  Level Anchorage Center
08:06PM 55.7667 -136.7167 129° Southeast 480 552 43,000  Level Anchorage Center
08:07PM 55.6833 -136.5333 129° Southeast 480 552 43,000  Level Anchorage Center
08:08PM 55.5833 -136.3500 134° Southeast 490 564 43,000  Level Anchorage Center
08:09PM 55.5000 -136.1667 129° Southeast 470 541 43,000  Level Anchorage Center
08:10PM 55.4167 -136.0000 131° Southeast 480 552 43,000  Level Anchorage Center
08:11PM 55.3333 -135.8167 129° Southeast 480 552 43,000  Level Anchorage Center
08:12PM 55.2500 -135.6500 131° Southeast 480 552 43,000  Level Anchorage Center
08:13PM 55.1500 -135.4667 134° Southeast 470 541 43,000  Level Anchorage Center
08:14PM 55.0667 -135.3000 131° Southeast 480 552 43,000  Level Anchorage Center
08:15PM 54.9833 -135.1167 128° Southeast 480 552 43,000  Level Anchorage Center
08:16PM 54.9000 -134.9500 131° Southeast 480 552 43,000  Level Anchorage Center
08:17PM 54.8000 -134.7667 133° Southeast 470 541 43,000  Level Anchorage Center
08:18PM 54.7167 -134.6000 131° Southeast 470 541 43,000  Level Anchorage Center
08:19PM 54.6333 -134.4333 131° Southeast 470 541 43,000  Level Anchorage Center
08:20PM 54.5500 -134.2500 128° Southeast 480 552 43,000  Level Anchorage Center
08:21PM 54.4500 -134.0833 136° Southeast 480 552 43,000  Level Anchorage Center
08:23PM 54.3333 -133.9167 140° Southeast 480 552 43,000  Level Vancouver Center
08:24PM 54.2500 -133.7500 131° Southeast 480 552 43,000  Level Vancouver Center
08:25PM 54.1667 -133.5833 130° Southeast 480 552 43,000  Level Vancouver Center
08:26PM 54.0667 -133.4333 139° Southeast 480 552 43,000  Level Vancouver Center
08:27PM 53.9833 -133.2333 125° Southeast 480 552 43,000  Level Vancouver Center
08:28PM 53.9000 -133.0667 130° Southeast 480 552 43,000  Level Vancouver Center
08:29PM 53.8000 -132.9167 138° Southeast 480 552 43,000  Level Vancouver Center
08:30PM 53.7167 -132.7500 130° Southeast 480 552 43,000  Level Vancouver Center
08:31PM 53.6333 -132.5667 127° Southeast 480 552 43,000  Level Vancouver Center
08:32PM 53.5500 -132.4000 130° Southeast 480 552 43,000  Level Vancouver Center
08:33PM 53.4500 -132.2500 138° Southeast 480 552 43,000  Level Vancouver Center
08:34PM 53.3667 -132.0667 127° Southeast 480 552 43,000  Level Vancouver Center
08:35PM 53.2833 -131.9000 130° Southeast 480 552 43,000  Level Vancouver Center
08:36PM 53.1833 -131.7500 138° Southeast 490 564 43,000  Level Vancouver Center
08:37PM 53.1000 -131.5667 127° Southeast 480 552 43,000  Level Vancouver Center
08:38PM 53.0000 -131.4000 135° Southeast 480 552 43,000  Level Vancouver Center
08:39PM 52.9167 -131.2333 130° Southeast 480 552 43,000  Level Vancouver Center
08:40PM 52.8333 -131.0667 130° Southeast 480 552 43,000  Level Vancouver Center
08:41PM 52.7333 -130.8833 132° Southeast 490 564 43,000  Level Vancouver Center
08:42PM 52.6500 -130.7333 132° Southeast 490 564 43,000  Level Vancouver Center
08:43PM 52.5667 -130.5833 132° Southeast 480 552 43,000  Level Vancouver Center
08:44PM 52.4667 -130.4000 132° Southeast 490 564 43,000  Level Vancouver Center
08:45PM 52.3667 -130.2333 134° Southeast 490 564 43,000  Level Vancouver Center
08:46PM 52.2833 -130.0833 132° Southeast 480 552 43,000  Level Vancouver Center
08:47PM 52.2000 -129.9333 132° Southeast 480 552 43,000  Level Vancouver Center
08:48PM 52.1000 -129.7833 137° Southeast 480 552 43,000  Level Vancouver Center
08:49PM 52.0000 -129.6000 131° Southeast 490 564 43,000  Level Vancouver Center
08:50PM 51.9333 -129.4667 129° Southeast 480 552 43,000  Level Vancouver Center
08:51PM 51.8167 -129.2833 136° Southeast 480 552 43,000  Level Vancouver Center
08:52PM 51.7333 -129.1333 132° Southeast 480 552 43,000  Level Vancouver Center
08:53PM 51.6500 -128.9667 129° Southeast 480 552 43,000  Level Vancouver Center
08:54PM 51.5500 -128.8167 137° Southeast 490 564 43,000  Level Vancouver Center
08:55PM 51.4667 -128.6500 129° Southeast 490 564 43,000  Level Vancouver Center
08:56PM 51.3667 -128.5000 137° Southeast 490 564 43,000  Level Vancouver Center
08:57PM 51.2667 -128.3333 134° Southeast 490 564 43,000  Level Vancouver Center
08:58PM 51.1667 -128.2000 140° Southeast 490 564 43,000  Level Vancouver Center
08:59PM 51.0833 -128.0333 128° Southeast 490 564 43,000  Level Vancouver Center
09:00PM 50.9667 -127.8833 141° Southeast 490 564 43,000  Level Vancouver Center
09:01PM 50.9000 -127.7167 122° Southeast 490 564 43,000  Level Vancouver Center
09:02PM 50.8000 -127.5833 140° Southeast 490 564 43,000  Level Vancouver Center
09:03PM 50.6833 -127.4167 138° Southeast 490 564 43,000  Level Vancouver Center
09:04PM 50.6000 -127.2500 128° Southeast 490 564 43,000  Level Vancouver Center
09:05PM 50.5333 -127.0833 122° Southeast 490 564 43,000  Level Vancouver Center
09:06PM 50.4500 -126.9000 125° Southeast 490 564 43,000  Level Vancouver Center
09:11PM 49.9991 -125.9395 128° Southeast 493 567 43,000  Level FlightAware ADS-B (CYVR)
09:12PM 49.9559 -125.8522 127° Southeast 492 566 43,000  Level FlightAware ADS-B (CYVR)
09:12PM 49.9122 -125.7640 128° Southeast 492 566 43,000  Level FlightAware ADS-B (CYVR)
09:13PM 49.8764 -125.6923 128° Southeast 492 566 43,000  Level FlightAware ADS-B (CYVR)
09:13PM 49.8270 -125.5936 128° Southeast 491 565 43,000  Level FlightAware ADS-B (CYVR)
09:14PM 49.7792 -125.4978 128° Southeast 491 565 43,000  Level FlightAware ADS-B (CYVR)
09:14PM 49.7375 -125.4149 128° Southeast 492 566 43,000  Level FlightAware ADS-B (CYVR)
09:15PM 49.6902 -125.3214 128° Southeast 493 567 43,000  Level FlightAware ADS-B (CYVR)
09:15PM 49.6480 -125.2380 128° Southeast 492 566 43,000  Level FlightAware ADS-B (CYVR)
09:16PM 49.6039 -125.1510 128° Southeast 490 564 43,000  Level FlightAware ADS-B (CYVR)
09:17PM 49.5489 -125.0432 128° Southeast 490 564 43,000  Level FlightAware ADS-B (CYVR)
09:17PM 49.5279 -125.0020 128° Southeast 490 564 43,000  Level FlightAware ADS-B
09:17PM 49.5117 -124.9706 128° Southeast 490 564 43,000  Level FlightAware ADS-B (CYVR)
09:17PM 49.4781 -124.9050 128° Southeast 489 563 43,000  Level FlightAware ADS-B
09:18PM 49.4649 -124.8796 128° Southeast 490 564 43,000  Level FlightAware ADS-B (CYVR)
09:18PM 49.4191 -124.7908 128° Southeast 491 565 43,000  Level FlightAware ADS-B (CYVR)
09:19PM 49.3656 -124.6877 128° Southeast 494 568 43,000  Level FlightAware ADS-B (CYCD)
09:19PM 49.3184 -124.5969 128° Southeast 495 570 43,000  Level FlightAware ADS-B (CYVR)
09:20PM 49.3070 -124.5750 128° Southeast 495 570 43,000  Level FlightAware ADS-B (CYWH)
09:20PM 49.2670 -124.4980 129° Southeast 495 570 43,000  Level FlightAware ADS-B
09:20PM 49.2470 -124.4602 129° Southeast 496 571 43,000  Level FlightAware ADS-B (CYVR)
09:20PM 49.2242 -124.4170 129° Southeast 497 572 43,000  Level FlightAware ADS-B
09:21PM 49.2059 -124.3816 129° Southeast 496 571 43,000  Level FlightAware ADS-B (CYVR)
09:21PM 49.1804 -124.3330 129° Southeast 495 570 43,000  Level FlightAware ADS-B
09:21PM 49.1535 -124.2820 129° Southeast 495 570 43,000  Level FlightAware ADS-B (CYVR)
09:22PM 49.1249 -124.2280 129° Southeast 495 570 43,000  Level FlightAware ADS-B
09:22PM 49.1122 -124.2038 129° Southeast 496 571 43,000  Level FlightAware ADS-B (CYVR)
09:22PM 49.0815 -124.1460 129° Southeast 495 570 43,000  Level FlightAware ADS-B
09:22PM 49.0698 -124.1236 129° Southeast 496 571 43,000  Level FlightAware ADS-B (CYWH)
09:23PM 49.0382 -124.0640 129° Southeast 495 570 43,000  Level FlightAware ADS-B
09:23PM 49.0163 -124.0230 129° Southeast 495 570 43,000  Level FlightAware ADS-B (CYVR)
09:23PM 48.9936 -123.9800 129° Southeast 496 571 43,000  Level FlightAware ADS-B
09:23PM 48.9732 -123.9420 129° Southeast 496 571 43,000  Level FlightAware ADS-B (CYVR)
09:24PM 48.9502 -123.8990 129° Southeast 494 568 43,000  Level FlightAware ADS-B
09:24PM 48.9146 -123.8324 129° Southeast 492 566 43,000  Level FlightAware ADS-B (CYWH)
09:24PM 48.9061 -123.8160 129° Southeast 492 566 43,000 -240 Level FlightAware ADS-B
09:25PM 48.8630 -123.7360 129° Southeast 493 567 42,900 -960 Descending FlightAware ADS-B
09:25PM 48.8133 -123.6440 129° Southeast 488 562 42,000 -1,860 Descending FlightAware ADS-B
09:25PM 48.8167 -123.6501 130° Southeast 488 562 41,800 -2,400 Descending FlightAware ADS-B (CYCD)
09:26PM 48.7771 -123.5780 129° Southeast 487 560 41,000 -3,180 Descending FlightAware ADS-B
09:26PM 48.7536 -123.5340 130° Southeast 495 570 39,700 -4,380 Descending FlightAware ADS-B
09:26PM 48.7362 -123.5067 137° Southeast 492 566 38,900 -3,420 Descending FlightAware ADS-B (CYWH)
09:26PM 48.7289 -123.4960 138° Southeast 492 566 38,800 -3,000 Descending FlightAware ADS-B
09:26PM 48.7169 -123.4810 140° Southeast 490 564 38,400 -6,720 Descending FlightAware ADS-B
09:26PM 48.7059 -123.4674 142° Southeast 490 564 37,800 -4,200 Descending FlightAware ADS-B (CYCD)
09:27PM 48.6931 -123.4530 145° Southeast 489 563 37,500 -4,200 Descending FlightAware ADS-B
09:27PM 48.6376 -123.4007 148° Southeast 487 560 34,900 -4,920 Descending FlightAware ADS-B (CYWH)
09:27PM 48.6326 -123.3960 148° Southeast 486 559 34,900 -5,040 Level FlightAware ADS-B
09:28PM 48.5749 -123.3421 149° Southeast 484 557 32,300 -5,220 Descending FlightAware ADS-B (CYWH)
09:28PM 48.5185 -123.2900 148° Southeast 476 548 29,700 -5,520 Descending FlightAware ADS-B
09:28PM 48.4911 -123.2646 148° Southeast 478 550 28,200 -6,240 Descending FlightAware ADS-B (CYWH)
09:29PM 48.4618 -123.2380 148° Southeast 476 548 26,600 -6,420 Descending FlightAware ADS-B
09:29PM 48.4353 -123.2130 149° Southeast 475 547 25,000 -6,240 Descending FlightAware ADS-B (CYWH)
09:29PM 48.4062 -123.1860 148° Southeast 473 544 23,500 -5,640 Descending FlightAware ADS-B
09:29PM 48.3869 -123.1681 148° Southeast 467 537 22,200 -5,040 Descending FlightAware ADS-B (CYWH)
09:30PM 48.3509 -123.1350 149° Southeast 456 525 21,000 -4,860 Descending FlightAware ADS-B
09:30PM 48.3229 -123.1092 148° Southeast 445 512 19,700 -5,040 Descending FlightAware ADS-B (CYWH)
09:30PM 48.2980 -123.0860 148° Southeast 437 503 18,500 -5,040 Descending FlightAware ADS-B
09:30PM 48.2594 -123.0508 149° Southeast 427 491 16,600 -5,160 Descending FlightAware ADS-B (CYVR)
09:31PM 48.2524 -123.0440 149° Southeast 425 489 16,200 -5,100 Descending FlightAware ADS-B
09:31PM 48.2332 -123.0269 149° Southeast 416 479 14,900 -5,220 Descending FlightAware ADS-B (CYVR)
09:31PM 48.2031 -122.9990 148° Southeast 406 467 13,600 -5,400 Descending FlightAware ADS-B
09:31PM 48.2047 -123.0009 148° Southeast 406 467 13,200 -4,320 Descending FlightAware ADS-B (KPAE)
09:31PM 48.1597 -122.9600 148° Southeast 385 443 11,600 -3,780 Descending FlightAware ADS-B
09:32PM 48.1511 -122.9510 143° Southeast 375 432 11,400 -1,800 Descending FlightAware ADS-B
09:32PM 48.1456 -122.9440 138° Southeast 367 422 11,300 -1,380 Descending FlightAware ADS-B
09:32PM 48.1399 -122.9350 131° Southeast 361 415 11,200 -1,020 Descending FlightAware ADS-B
09:32PM 48.1505 -122.9505 129° Southeast 358 412 11,200 -1,500 Level FlightAware ADS-B (CYWH)
09:32PM 48.1363 -122.9280 126° Southeast 355 409 11,100 -1,500 Descending FlightAware ADS-B
09:32PM 48.1319 -122.9180 120° Southeast 348 400 11,000 -1,740 Descending FlightAware ADS-B
09:32PM 48.1505 -122.9505 118° Southeast 346 398 10,900 -1,800 Descending FlightAware ADS-B (CYWH)
09:32PM 48.1109 -122.8540 116° Southeast 312 359 10,100 -1,800 Descending FlightAware ADS-B
09:32PM 48.1109 -122.8542 116° Southeast 309 356 10,000 -1,440 Descending FlightAware ADS-B (CYWH)
09:33PM 48.0980 -122.8150 116° Southeast 303 349 9,600 -1,260 Descending FlightAware ADS-B
09:33PM 48.0965 -122.8105 116° Southeast 284 327 9,500 -2,280 Descending FlightAware ADS-B (CYVR)
09:33PM 48.0892 -122.7880 116° Southeast 281 323 9,000 -2,520 Descending FlightAware ADS-B
09:33PM 48.0870 -122.7815 116° Southeast 280 322 8,800 -2,400 Descending FlightAware ADS-B (KPAE)
09:33PM 48.0804 -122.7620 116° Southeast 279 321 8,400 -2,700 Descending FlightAware ADS-B
09:33PM 48.0769 -122.7511 116° Southeast 281 323 7,900 -2,820 Descending FlightAware ADS-B (KPAE)
09:34PM 48.0720 -122.7360 116° Southeast 282 325 7,700 -2,700 Descending FlightAware ADS-B
09:34PM 48.0632 -122.7090 117° Southeast 286 329 7,000 -3,000 Descending FlightAware ADS-B
09:34PM 48.0625 -122.7074 117° Southeast 289 333 6,900 -1,860 Descending FlightAware ADS-B (CYWH)
09:34PM 48.0555 -122.6870 116° Southeast 290 334 6,600 -1,440 Descending FlightAware ADS-B
09:34PM 48.0527 -122.6780 116° Southeast 285 328 6,500 -840 Descending FlightAware ADS-B (CYVR)
09:34PM 48.0463 -122.6590 116° Southeast 283 326 6,400 -420 Descending FlightAware ADS-B
09:34PM 48.0440 -122.6516 116° Southeast 281 323 6,400 -1,080 Level FlightAware ADS-B (CYWH)
09:35PM 48.0371 -122.6310 116° Southeast 273 314 6,100 -2,040 Descending FlightAware ADS-B
09:35PM 48.0318 -122.6147 117° Southeast 271 312 5,700 -2,460 Descending FlightAware ADS-B (CYVR)
09:35PM 48.0245 -122.5940 116° Southeast 272 313 5,200 -2,160 Descending FlightAware ADS-B
09:35PM 48.0222 -122.5869 117° Southeast 267 307 5,100 -1,080 Descending FlightAware ADS-B (CYVR)
09:35PM 48.0091 -122.5490 117° Southeast 246 283 4,700 -1,020 Descending FlightAware ADS-B
09:35PM 48.0069 -122.5431 117° Southeast 245 282 4,600 -780 Descending FlightAware ADS-B (KPAE)
09:36PM 48.0012 -122.5270 118° Southeast 233 268 4,500 -1,020 Descending FlightAware ADS-B
09:36PM 48.0069 -122.5431 117° Southeast 221 254 4,300 -1,020 Descending FlightAware ADS-B (KPAE)
09:36PM 47.9929 -122.5030 117° Southeast 215 247 4,200 -1,500 Descending FlightAware ADS-B
09:36PM 47.9841 -122.4770 117° Southeast 212 244 3,600 -1,500 Descending FlightAware ADS-B
09:36PM 47.9823 -122.4719 117° Southeast 209 241 3,600 -720 Level FlightAware ADS-B (KPAE)
09:37PM 47.9733 -122.4459 117° Southeast 205 236 3,300 -540 Descending FlightAware ADS-B (KPAE)
09:38PM 47.9449 -122.3805 151° Southeast 193 222 2,900 -420 Descending FlightAware ADS-B (KPAE)
09:38PM 47.9423 -122.3786 159° South 194 223 2,900 -600 Level FlightAware ADS-B (KPAE)
09:38PM 47.9291 -122.3750 180° South 194 223 2,700 -720 Descending FlightAware ADS-B (KPAE)
09:38PM 47.9188 -122.3749 178° South 194 223 2,500 -600 Descending FlightAware ADS-B (KPAE)
09:39PM 47.8908 -122.3742 181° South 192 221 2,300 -780 Descending FlightAware ADS-B (KPAE)
09:39PM 47.8746 -122.3736 178° South 177 204 2,000 -720 Descending FlightAware ADS-B (KPAE)
09:39PM 47.8621 -122.3733 180° South 168 193 1,900 -360 Descending FlightAware ADS-B (KPAE)
09:39PM 47.8675 -122.3734 173° South 166 191 1,900 240 Level FlightAware ADS-B (KPAE)
09:40PM 47.8472 -122.3639 142° Southeast 172 198 2,000 120 Climbing FlightAware ADS-B (KPAE)
09:40PM 47.8386 -122.3469 111° Southeast 159 183 2,000  Level FlightAware ADS-B (KPAE)
09:40PM 47.8365 -122.3249 88° East 152 175 2,000 -180 Level FlightAware ADS-B (KPAE)
09:41PM 47.8401 -122.3067 59° Northeast 144 166 1,900 -780 Descending FlightAware ADS-B (KPAE)
09:41PM 47.8498 -122.2921 40° Northeast 141 162 1,500 -1,200 Descending FlightAware ADS-B (KPAE)
09:41PM 47.8440 -122.2995 17° North 140 161 1,200 -720 Descending FlightAware ADS-B (KPAE)
09:42PM 47.8769 -122.2849 360° North 140 161 1,000 -600 Descending FlightAware ADS-B (KPAE)
09:42PM 47.8858 -122.2851 360° North 138 159 700 -780 Descending FlightAware ADS-B (KPAE)